createdAt,value
2022-09-28T08:02:25.440Z,14.26
2022-09-28T08:10:02.139Z,14.54
2022-09-28T08:13:09.302Z,14.31
2022-09-28T08:16:15.767Z,14.33
2022-09-28T08:19:23.509Z,14.50
2022-09-28T08:22:26.404Z,14.74
2022-09-28T08:25:32.410Z,14.37
2022-09-28T08:28:43.237Z,14.59
2022-09-28T08:31:48.564Z,14.48
2022-09-28T08:34:52.247Z,14.63
2022-09-28T08:37:55.819Z,14.89
2022-09-28T08:41:11.636Z,15.03
2022-09-28T08:44:32.391Z,15.07
2022-09-28T08:48:02.573Z,15.17
2022-09-28T08:51:25.264Z,15.29
2022-09-28T08:54:46.573Z,15.26
2022-09-28T08:57:53.011Z,15.08
2022-09-28T09:00:59.848Z,14.95
2022-09-28T09:04:10.235Z,14.63
2022-09-28T09:07:34.318Z,15.07
2022-09-28T09:10:53.509Z,15.26
2022-09-28T09:14:04.704Z,15.40
2022-09-28T09:17:25.457Z,15.67
2022-09-28T09:20:47.173Z,15.85
2022-09-28T09:24:03.599Z,15.90
2022-09-28T09:27:31.303Z,15.97
2022-09-28T09:30:54.850Z,15.46
2022-09-28T09:34:35.908Z,15.91
2022-09-28T09:37:57.796Z,16.06
2022-09-28T09:41:23.416Z,15.73
2022-09-28T09:44:57.050Z,15.80
2022-09-28T09:48:22.182Z,15.96
2022-09-28T09:51:52.659Z,16.21
2022-09-28T09:55:30.303Z,16.14
2022-09-28T09:58:46.224Z,15.72
2022-09-28T10:01:51.369Z,15.93
2022-09-28T10:05:18.363Z,16.13
2022-09-28T10:08:20.910Z,16.29
2022-09-28T10:11:29.535Z,15.81
2022-09-28T10:14:36.661Z,15.92
2022-09-28T10:17:43.831Z,15.95
2022-09-28T10:20:49.737Z,15.91
2022-09-28T10:24:05.240Z,15.64
2022-09-28T10:27:09.075Z,15.98
2022-09-28T10:30:18.968Z,15.90
2022-09-28T10:33:31.828Z,16.68
